createdAt,value
2018-06-21T00:00:59.452Z,100464.61
2018-06-21T00:03:29.217Z,100449.22
2018-06-21T00:05:59.037Z,100444.31
2018-06-21T00:08:29.017Z,100433.20
2018-06-21T00:10:58.390Z,100435.46
2018-06-21T00:13:27.875Z,100448.86
2018-06-21T00:15:57.727Z,100436.55
2018-06-21T00:18:27.628Z,100426.77
2018-06-21T00:20:57.000Z,100432.14
2018-06-21T00:23:26.705Z,100433.97
2018-06-21T00:25:56.331Z,100428.25
2018-06-21T00:28:25.949Z,100421.62
2018-06-21T00:30:55.479Z,100421.55
2018-06-21T00:33:24.928Z,100419.09
2018-06-21T00:35:54.379Z,100421.46
2018-06-21T00:38:23.935Z,100432.63
2018-06-21T00:40:53.876Z,100424.37
2018-06-21T00:43:23.566Z,100426.59
2018-06-21T00:45:52.862Z,100406.33
2018-06-21T00:48:22.631Z,100406.91
2018-06-21T00:50:52.285Z,100404.77
2018-06-21T00:53:21.584Z,100393.16
2018-06-21T00:56:21.051Z,100399.36
2018-06-21T00:58:50.569Z,100404.26
2018-06-21T01:01:20.215Z,100396.70
2018-06-21T01:03:49.611Z,100395.50
2018-06-21T01:06:18.908Z,100393.24
2018-06-21T01:08:48.669Z,100398.02
2018-06-21T01:11:18.080Z,100386.99
2018-06-21T01:13:47.450Z,100377.55
2018-06-21T01:16:17.344Z,100374.06
2018-06-21T01:18:46.945Z,100380.09
2018-06-21T01:21:16.526Z,100384.20
2018-06-21T01:23:46.215Z,100390.00
2018-06-21T01:26:15.665Z,100371.97
2018-06-21T01:28:45.325Z,100374.67
2018-06-21T01:31:15.109Z,100365.23
2018-06-21T01:33:44.487Z,100358.38
2018-06-21T01:36:14.687Z,100358.80
2018-06-21T01:38:44.459Z,100359.75
2018-06-21T01:41:14.428Z,100363.17
2018-06-21T01:43:44.039Z,100360.05
2018-06-21T01:46:14.016Z,100362.77
2018-06-21T01:48:43.716Z,100360.52
2018-06-21T01:51:13.540Z,100361.45
2018-06-21T01:53:43.281Z,100356.09
2018-06-21T01:56:13.323Z,100356.66
2018-06-21T01:58:43.126Z,100354.02
2018-06-21T02:01:13.423Z,100345.22
2018-06-21T02:03:43.298Z,100339.85
2018-06-21T02:06:13.104Z,100343.75
2018-06-21T02:08:43.151Z,100340.53
2018-06-21T02:11:12.843Z,100334.23
2018-06-21T02:13:42.520Z,100336.89
2018-06-21T02:16:12.383Z,100338.58
2018-06-21T02:18:41.755Z,100327.98
2018-06-21T02:21:11.576Z,100330.62
2018-06-21T02:23:41.359Z,100320.93
2018-06-21T02:26:10.920Z,100326.15
2018-06-21T02:28:40.714Z,100317.33
2018-06-21T02:31:10.288Z,100317.27
2018-06-21T02:33:39.859Z,100314.41
2018-06-21T02:36:09.544Z,100304.58
2018-06-21T02:38:39.287Z,100303.73
2018-06-21T02:41:09.187Z,100297.52
2018-06-21T02:43:38.598Z,100300.09
2018-06-21T02:46:08.298Z,100301.35
2018-06-21T02:48:37.918Z,100302.73
2018-06-21T02:51:07.538Z,100296.19
2018-06-21T02:53:37.104Z,100300.82
2018-06-21T02:56:07.054Z,100304.32
2018-06-21T02:58:36.553Z,100310.94
2018-06-21T03:01:06.227Z,100313.66
2018-06-21T03:03:35.943Z,100321.73
2018-06-21T03:06:05.376Z,100333.66
2018-06-21T03:08:35.040Z,100330.00
2018-06-21T03:11:04.700Z,100340.20
2018-06-21T03:13:34.202Z,100336.34
2018-06-21T03:16:03.925Z,100336.23
2018-06-21T03:18:33.641Z,100332.01
2018-06-21T03:21:03.144Z,100344.20
2018-06-21T03:23:33.534Z,100355.67
2018-06-21T03:26:03.394Z,100362.34
2018-06-21T03:28:32.880Z,100360.95
2018-06-21T03:31:02.586Z,100367.75
2018-06-21T03:33:32.319Z,100364.83
2018-06-21T03:36:01.791Z,100366.70
2018-06-21T03:38:31.355Z,100370.44
2018-06-21T03:41:00.915Z,100370.44
2018-06-21T03:43:31.283Z,100367.02
2018-06-21T03:46:01.356Z,100368.38
2018-06-21T03:48:31.113Z,100372.34
2018-06-21T03:51:00.566Z,100372.50
2018-06-21T03:53:30.276Z,100377.34
2018-06-21T03:55:59.827Z,100374.16
2018-06-21T03:58:29.442Z,100368.35
2018-06-21T04:00:58.795Z,100382.55
2018-06-21T04:03:28.298Z,100379.86
2018-06-21T04:05:58.088Z,100391.19
2018-06-21T04:08:27.609Z,100397.42
2018-06-21T04:10:57.438Z,100391.80
2018-06-21T04:13:27.352Z,100394.05
2018-06-21T04:15:57.214Z,100395.71
2018-06-21T04:18:33.894Z,100387.11
2018-06-21T04:21:03.453Z,100388.86
2018-06-21T04:23:33.296Z,100380.02
2018-06-21T04:26:02.855Z,100369.01
2018-06-21T04:28:32.871Z,100376.73
2018-06-21T04:31:02.588Z,100380.86
2018-06-21T04:33:32.183Z,100382.92
2018-06-21T04:36:01.995Z,100366.96
2018-06-21T04:38:31.455Z,100370.44
2018-06-21T04:41:01.274Z,100374.39
2018-06-21T04:43:30.863Z,100383.90
2018-06-21T04:46:00.627Z,100398.27
2018-06-21T04:48:29.739Z,100393.97
2018-06-21T04:50:59.676Z,100388.20
2018-06-21T04:53:29.655Z,100381.40
2018-06-21T04:55:59.265Z,100385.22
2018-06-21T04:58:28.637Z,100385.45
2018-06-21T05:00:58.473Z,100389.70
2018-06-21T05:03:28.432Z,100388.92
2018-06-21T05:05:58.522Z,100392.28
2018-06-21T05:08:28.357Z,100399.37
2018-06-21T05:10:58.442Z,100387.61
2018-06-21T05:13:28.154Z,100387.98
2018-06-21T05:15:58.215Z,100389.91
2018-06-21T05:18:27.956Z,100386.95
2018-06-21T05:20:57.679Z,100390.36
2018-06-21T05:23:27.744Z,100380.83
2018-06-21T05:25:57.259Z,100390.52
2018-06-21T05:28:26.969Z,100386.39
2018-06-21T05:30:56.637Z,100378.75
2018-06-21T05:33:26.290Z,100368.02
2018-06-21T05:35:55.877Z,100365.31
2018-06-21T05:38:25.371Z,100366.14
2018-06-21T05:40:54.791Z,100369.84
2018-06-21T05:43:24.561Z,100364.61
2018-06-21T05:45:53.905Z,100364.61
2018-06-21T05:48:23.146Z,100358.77
2018-06-21T05:50:52.984Z,100357.55
2018-06-21T05:53:22.681Z,100346.75
2018-06-21T05:55:51.845Z,100353.85
2018-06-21T05:58:21.450Z,100354.19
2018-06-21T06:00:51.039Z,100349.52
2018-06-21T06:03:20.391Z,100360.80
2018-06-21T06:05:49.739Z,100349.49
2018-06-21T06:08:19.113Z,100344.59
2018-06-21T06:10:48.733Z,100343.52
2018-06-21T06:13:18.522Z,100331.06
2018-06-21T06:15:48.282Z,100326.20
2018-06-21T06:18:18.101Z,100323.39
2018-06-21T06:20:47.436Z,100326.39
2018-06-21T06:23:17.009Z,100329.80
2018-06-21T06:25:46.515Z,100332.32
2018-06-21T06:28:16.035Z,100331.97
2018-06-21T06:30:45.890Z,100330.52
2018-06-21T06:33:15.573Z,100325.08
2018-06-21T06:35:44.989Z,100325.83
2018-06-21T06:38:14.395Z,100311.91
2018-06-21T06:40:44.300Z,100311.92
2018-06-21T06:43:13.469Z,100312.59
2018-06-21T06:45:43.087Z,100318.20
2018-06-21T06:48:12.879Z,100323.11
2018-06-21T06:50:42.094Z,100321.30
2018-06-21T06:53:11.527Z,100326.47
2018-06-21T06:55:41.062Z,100313.59
2018-06-21T06:58:10.644Z,100310.91
2018-06-21T07:00:39.955Z,100304.64
2018-06-21T07:03:09.805Z,100309.43
2018-06-21T07:05:39.407Z,100308.34
2018-06-21T07:08:09.132Z,100308.42
2018-06-21T07:10:38.638Z,100319.22
2018-06-21T07:13:08.317Z,100309.38
2018-06-21T07:15:38.156Z,100308.22
2018-06-21T07:18:07.716Z,100308.72
2018-06-21T07:20:37.618Z,100309.73
2018-06-21T07:23:07.287Z,100302.16
2018-06-21T07:25:36.967Z,100300.08
2018-06-21T07:28:06.561Z,100294.09
2018-06-21T07:30:35.862Z,100301.06
2018-06-21T07:33:05.336Z,100300.09
2018-06-21T07:35:35.223Z,100300.33
2018-06-21T07:38:05.048Z,100293.24
2018-06-21T07:40:34.744Z,100294.06
2018-06-21T07:43:04.310Z,100290.17
2018-06-21T07:45:33.586Z,100289.03
2018-06-21T07:48:03.355Z,100287.67
2018-06-21T07:50:32.900Z,100283.16
2018-06-21T07:53:02.908Z,100278.40
2018-06-21T07:55:32.390Z,100288.83
2018-06-21T07:58:01.542Z,100283.04
2018-06-21T08:00:31.286Z,100284.36
2018-06-21T08:03:01.042Z,100280.78
2018-06-21T08:05:30.249Z,100278.49
2018-06-21T08:08:00.150Z,100285.37
2018-06-21T08:10:29.645Z,100271.67
2018-06-21T08:12:58.938Z,100279.04
2018-06-21T08:15:29.026Z,100278.20
2018-06-21T08:17:58.864Z,100271.11
2018-06-21T08:20:28.035Z,100275.28
2018-06-21T08:22:57.714Z,100274.77
2018-06-21T08:25:27.204Z,100275.09
2018-06-21T08:27:56.750Z,100274.34
2018-06-21T08:30:26.488Z,100279.78
2018-06-21T08:32:55.830Z,100276.09
2018-06-21T08:35:25.326Z,100280.17
2018-06-21T08:37:55.251Z,100278.94
2018-06-21T08:40:24.952Z,100265.98
2018-06-21T08:42:54.925Z,100268.42
2018-06-21T08:45:25.426Z,100277.68
2018-06-21T08:47:54.725Z,100273.90
2018-06-21T08:50:23.944Z,100284.45
2018-06-21T08:52:53.761Z,100274.70
2018-06-21T08:55:23.483Z,100272.17
2018-06-21T08:57:52.964Z,100275.25
2018-06-21T09:00:22.594Z,100280.55
2018-06-21T09:02:51.981Z,100276.98
2018-06-21T09:05:21.224Z,100278.43
2018-06-21T09:07:51.014Z,100275.66
2018-06-21T09:10:20.538Z,100275.15
2018-06-21T09:12:50.022Z,100254.23
2018-06-21T09:15:19.667Z,100281.69
2018-06-21T09:17:49.341Z,100275.38
2018-06-21T09:20:18.661Z,100278.83
2018-06-21T09:22:48.257Z,100280.14
2018-06-21T09:25:18.374Z,100284.34
2018-06-21T09:27:47.519Z,100279.41
2018-06-21T09:30:17.222Z,100157.05
2018-06-21T09:32:46.604Z,100278.16
2018-06-21T09:35:15.686Z,100284.04
2018-06-21T09:37:50.447Z,100288.74
2018-06-21T09:40:24.668Z,100284.77
2018-06-21T09:42:59.160Z,100288.23
2018-06-21T09:45:33.305Z,100283.95
2018-06-21T09:48:08.050Z,100286.99
2018-06-21T09:50:37.720Z,100276.81
2018-06-21T09:53:07.399Z,100281.79
2018-06-21T09:55:36.605Z,100274.16
2018-06-21T09:58:06.217Z,100274.08
2018-06-21T10:00:40.675Z,100261.49
2018-06-21T10:03:10.267Z,100279.59
2018-06-21T10:05:39.952Z,100275.53
2018-06-21T10:08:09.133Z,100279.97
2018-06-21T10:10:39.236Z,100281.02
2018-06-21T10:13:08.745Z,100263.66
2018-06-21T10:15:38.212Z,100268.94
2018-06-21T10:18:07.927Z,100270.69
2018-06-21T10:20:37.405Z,100264.97
2018-06-21T10:23:06.488Z,100268.30
2018-06-21T10:25:36.034Z,100272.12
2018-06-21T10:28:05.511Z,100270.27
2018-06-21T10:30:35.000Z,100279.48
2018-06-21T10:33:04.434Z,100268.05
2018-06-21T10:35:34.002Z,100274.34
2018-06-21T10:38:03.144Z,100267.71
2018-06-21T10:40:32.417Z,100272.62
2018-06-21T10:43:02.232Z,100270.45
2018-06-21T10:45:31.601Z,100268.13
2018-06-21T10:48:01.091Z,100241.92
2018-06-21T10:50:30.696Z,100265.23
2018-06-21T10:53:00.427Z,100260.95
2018-06-21T10:55:30.209Z,100263.71
2018-06-21T10:57:59.657Z,100266.80
2018-06-21T11:00:29.069Z,100264.64
2018-06-21T11:02:58.681Z,100273.34
2018-06-21T11:05:28.440Z,100270.17
2018-06-21T11:07:58.146Z,100262.44
2018-06-21T11:10:27.746Z,100264.06
2018-06-21T11:12:57.194Z,100276.11
2018-06-21T11:15:26.950Z,100270.91
2018-06-21T11:17:56.527Z,100271.52
2018-06-21T11:20:26.217Z,100268.62
2018-06-21T11:22:55.908Z,100274.13
2018-06-21T11:25:25.426Z,100265.28
2018-06-21T11:27:54.951Z,100271.66
2018-06-21T11:30:24.314Z,100271.02
2018-06-21T11:32:54.022Z,100265.70
2018-06-21T11:35:23.520Z,100268.94
2018-06-21T11:37:52.952Z,100275.17
2018-06-21T11:40:22.347Z,100270.49
2018-06-21T11:42:51.515Z,100157.53
2018-06-21T11:45:20.880Z,100260.45
2018-06-21T11:47:50.591Z,100275.14
2018-06-21T11:50:19.906Z,100268.75
2018-06-21T11:52:49.069Z,100267.36
2018-06-21T11:55:18.812Z,100266.88
2018-06-21T11:57:48.052Z,100269.59
2018-06-21T12:00:17.173Z,100272.16
2018-06-21T12:02:46.917Z,100272.53
2018-06-21T12:05:16.114Z,100282.22
2018-06-21T12:07:45.759Z,100268.80
2018-06-21T12:10:15.329Z,100265.23
2018-06-21T12:12:44.444Z,100264.91
2018-06-21T12:15:13.686Z,100268.23
2018-06-21T12:17:43.293Z,100262.66
2018-06-21T12:20:12.431Z,100262.50
2018-06-21T12:22:41.858Z,100261.88
2018-06-21T12:25:11.998Z,100259.36
2018-06-21T12:27:41.301Z,100246.80
2018-06-21T12:30:10.895Z,100257.84
2018-06-21T12:32:40.486Z,100254.61
2018-06-21T12:35:09.599Z,100245.31
2018-06-21T12:37:38.756Z,100246.55
2018-06-21T12:40:08.071Z,100246.06
2018-06-21T12:42:37.818Z,100246.58
2018-06-21T12:45:07.393Z,100239.67
2018-06-21T12:47:37.176Z,100234.95
2018-06-21T12:50:06.711Z,100225.70
2018-06-21T12:52:36.001Z,100229.34
2018-06-21T12:55:05.796Z,100243.92
2018-06-21T12:57:35.384Z,100234.95
2018-06-21T13:00:04.877Z,100238.50
2018-06-21T13:02:34.296Z,100241.27
2018-06-21T13:05:03.568Z,100232.92
2018-06-21T13:07:32.704Z,100236.72
2018-06-21T13:10:13.131Z,100240.56
2018-06-21T13:12:54.147Z,100245.11
2018-06-21T13:15:23.762Z,100248.68
2018-06-21T13:17:52.917Z,100239.97
2018-06-21T13:20:22.251Z,100246.80
2018-06-21T13:22:51.780Z,100259.57
2018-06-21T13:25:21.013Z,100263.80
2018-06-21T13:27:50.415Z,100262.20
2018-06-21T13:30:20.174Z,100265.77
2018-06-21T13:32:49.411Z,100257.09
2018-06-21T13:35:18.915Z,100255.82
2018-06-21T13:37:48.130Z,100259.16
2018-06-21T13:40:17.500Z,100255.02
2018-06-21T13:42:46.940Z,100261.68
2018-06-21T13:45:16.475Z,100267.32
2018-06-21T13:47:45.701Z,100262.36
2018-06-21T13:50:15.142Z,100269.56
2018-06-21T13:52:44.604Z,100263.03
2018-06-21T13:55:13.833Z,100262.77
2018-06-21T13:57:43.526Z,100275.66
2018-06-21T14:00:13.322Z,100278.23
2018-06-21T14:02:43.017Z,100281.94
2018-06-21T14:05:12.738Z,100279.28
2018-06-21T14:07:42.215Z,100280.55
2018-06-21T14:10:11.690Z,100279.59
2018-06-21T14:12:41.077Z,100295.67
2018-06-21T14:15:11.163Z,100285.35
2018-06-21T14:17:40.441Z,100287.63
2018-06-21T14:20:10.015Z,100295.42
2018-06-21T14:22:39.389Z,100294.63
2018-06-21T14:25:08.793Z,100296.99
2018-06-21T14:27:38.258Z,100296.05
2018-06-21T14:33:01.243Z,100305.58
2018-06-21T14:35:30.535Z,100305.90
2018-06-21T14:37:59.992Z,100307.03
2018-06-21T14:40:29.596Z,100309.20
2018-06-21T14:42:58.742Z,100309.98
2018-06-21T14:45:28.096Z,100301.42
2018-06-21T14:47:58.275Z,100313.95
2018-06-21T14:50:27.791Z,100317.03
2018-06-21T14:52:57.481Z,100310.28
2018-06-21T14:55:27.095Z,100314.89
2018-06-21T14:57:56.402Z,100308.51
2018-06-21T15:00:25.868Z,100306.35
2018-06-21T15:02:55.401Z,100301.70
2018-06-21T15:05:24.834Z,100304.98
2018-06-21T15:07:54.766Z,100307.22
2018-06-21T15:10:24.270Z,100303.86
2018-06-21T15:12:53.786Z,100304.53
2018-06-21T15:15:23.194Z,100304.27
2018-06-21T15:17:52.840Z,100305.50
2018-06-21T15:20:22.193Z,100307.18
2018-06-21T15:22:51.558Z,100310.48
2018-06-21T15:25:21.121Z,100309.72
2018-06-21T15:27:50.378Z,100303.25
2018-06-21T15:30:20.074Z,100301.30
2018-06-21T15:32:49.434Z,100305.80
2018-06-21T15:35:18.817Z,100307.64
2018-06-21T15:37:48.635Z,100307.03
2018-06-21T15:40:18.544Z,100314.22
2018-06-21T15:42:47.995Z,100300.36
2018-06-21T15:45:17.464Z,100304.34
2018-06-21T15:47:47.051Z,100311.41
2018-06-21T15:50:16.598Z,100311.69
2018-06-21T15:52:45.994Z,100318.55
2018-06-21T15:55:15.430Z,100319.88
2018-06-21T15:57:44.655Z,100320.79
2018-06-21T16:00:14.077Z,100312.11
2018-06-21T16:02:43.814Z,100312.51
2018-06-21T16:05:13.089Z,100318.55
2018-06-21T16:07:42.655Z,100314.28
2018-06-21T16:10:12.127Z,100319.69
2018-06-21T16:12:41.298Z,100322.33
2018-06-21T16:15:10.879Z,100314.05
2018-06-21T16:17:40.309Z,100310.07
2018-06-21T16:20:09.557Z,100313.34
2018-06-21T16:22:39.001Z,100309.55
2018-06-21T16:25:08.384Z,100308.26
2018-06-21T16:27:37.720Z,100308.44
2018-06-21T16:30:07.260Z,100310.28
2018-06-21T16:32:36.610Z,100316.52
2018-06-21T16:35:05.916Z,100306.41
2018-06-21T16:37:35.324Z,100307.45
2018-06-21T16:40:05.166Z,100322.11
2018-06-21T16:42:34.320Z,100309.55
2018-06-21T16:45:03.870Z,100316.52
2018-06-21T16:47:33.437Z,100312.20
2018-06-21T16:50:02.572Z,100316.52
2018-06-21T16:52:32.024Z,100315.02
2018-06-21T16:55:01.275Z,100309.99
2018-06-21T16:57:30.559Z,100315.50
2018-06-21T16:59:59.949Z,100316.96
2018-06-21T17:02:29.498Z,100316.16
2018-06-21T17:04:58.878Z,100322.41
2018-06-21T17:07:28.581Z,100324.26
2018-06-21T17:09:58.089Z,100330.55
2018-06-21T17:12:27.927Z,100326.61
2018-06-21T17:14:57.605Z,100324.05
2018-06-21T17:17:27.397Z,100327.72
2018-06-21T17:19:56.699Z,100323.33
2018-06-21T17:22:26.258Z,100334.88
2018-06-21T17:24:55.836Z,100322.09
2018-06-21T17:27:25.188Z,100319.95
2018-06-21T17:29:54.808Z,100320.97
2018-06-21T17:32:24.259Z,100232.42
2018-06-21T17:34:53.578Z,100313.92
2018-06-21T17:37:22.998Z,100321.30
2018-06-21T17:39:53.176Z,100321.30
2018-06-21T17:42:22.339Z,100327.66
2018-06-21T17:44:51.632Z,100327.44
2018-06-21T17:47:21.383Z,100321.73
2018-06-21T17:49:50.751Z,100331.47
2018-06-21T17:52:19.900Z,100327.86
2018-06-21T17:54:49.715Z,100322.13
2018-06-21T17:57:18.914Z,100323.38
2018-06-21T17:59:48.041Z,100320.41
2018-06-21T18:02:17.854Z,100319.14
2018-06-21T18:04:47.172Z,100305.55
2018-06-21T18:07:16.550Z,100306.06
2018-06-21T18:09:46.332Z,100313.28
2018-06-21T18:12:15.613Z,100313.80
2018-06-21T18:14:44.805Z,100315.34
2018-06-21T18:17:15.093Z,100320.86
2018-06-21T18:19:44.303Z,100320.21
2018-06-21T18:22:13.630Z,100324.02
2018-06-21T18:24:43.348Z,100323.88
2018-06-21T18:27:12.732Z,100319.09
2018-06-21T18:29:42.357Z,100316.83
2018-06-21T18:32:11.997Z,100316.16
2018-06-21T18:34:41.334Z,100327.12
2018-06-21T18:37:10.674Z,100315.56
2018-06-21T18:39:40.380Z,100329.19
2018-06-21T18:42:10.023Z,100324.39
2018-06-21T18:44:39.370Z,100332.34
2018-06-21T18:47:09.113Z,100327.05
2018-06-21T18:49:38.411Z,100332.03
2018-06-21T18:52:07.768Z,100335.08
2018-06-21T18:54:37.604Z,100336.23
2018-06-21T18:57:06.947Z,100333.21
2018-06-21T18:59:36.303Z,100336.03
2018-06-21T19:02:06.093Z,100339.53
2018-06-21T19:04:35.544Z,100345.73
2018-06-21T19:07:09.885Z,100350.08
2018-06-21T19:09:44.583Z,100352.05
2018-06-21T19:12:15.118Z,100351.94
2018-06-21T19:14:44.521Z,100367.11
2018-06-21T19:17:13.783Z,100360.53
2018-06-21T19:19:43.349Z,100367.61
2018-06-21T19:22:13.213Z,100366.69
2018-06-21T19:24:42.771Z,100369.34
2018-06-21T19:27:12.285Z,100367.42
2018-06-21T19:29:41.510Z,100375.77
2018-06-21T19:32:10.916Z,100376.19
2018-06-21T19:34:40.489Z,100377.35
2018-06-21T19:37:10.243Z,100388.38
2018-06-21T19:39:39.749Z,100386.30
2018-06-21T19:42:09.520Z,100388.52
2018-06-21T19:44:39.394Z,100387.53
2018-06-21T19:47:08.819Z,100393.25
2018-06-21T19:49:38.435Z,100391.00
2018-06-21T19:52:07.955Z,100391.28
2018-06-21T19:54:37.206Z,100401.49
2018-06-21T19:57:06.699Z,100402.91
2018-06-21T19:59:36.504Z,100400.44
2018-06-21T20:02:05.720Z,100405.12
2018-06-21T20:04:35.024Z,100409.59
2018-06-21T20:07:04.557Z,100400.71
2018-06-21T20:09:33.719Z,100409.64
2018-06-21T20:12:03.192Z,100402.67
2018-06-21T20:14:32.634Z,100404.55
2018-06-21T20:17:01.900Z,100407.15
2018-06-21T20:19:35.237Z,100408.59
2018-06-21T20:22:04.733Z,100412.95
2018-06-21T20:24:34.134Z,100421.76
2018-06-21T20:27:03.366Z,100418.23
2018-06-21T20:29:32.977Z,100424.66
2018-06-21T20:32:02.493Z,100425.31
2018-06-21T20:34:31.794Z,100429.77
2018-06-21T20:37:01.425Z,100427.66
2018-06-21T20:39:30.895Z,100437.40
2018-06-21T20:42:01.420Z,100429.19
2018-06-21T20:44:31.185Z,100432.41
2018-06-21T20:47:00.646Z,100421.90
2018-06-21T20:49:30.107Z,100431.63
2018-06-21T20:51:59.248Z,100423.76
2018-06-21T20:54:28.700Z,100423.05
2018-06-21T20:56:58.300Z,100428.33
2018-06-21T20:59:27.568Z,100433.69
2018-06-21T21:01:56.971Z,100429.30
2018-06-21T21:04:28.805Z,100423.37
2018-06-21T21:06:58.531Z,100429.83
2018-06-21T21:09:28.163Z,100429.34
2018-06-21T21:11:57.318Z,100431.29
2018-06-21T21:14:26.780Z,100432.28
2018-06-21T21:16:56.129Z,100435.06
2018-06-21T21:19:25.302Z,100436.91
2018-06-21T21:21:54.845Z,100432.91
2018-06-21T21:24:24.335Z,100441.61
2018-06-21T21:26:53.658Z,100440.59
2018-06-21T21:29:23.117Z,100443.28
2018-06-21T21:31:52.708Z,100438.35
2018-06-21T21:34:21.852Z,100442.39
2018-06-21T21:36:51.381Z,100437.91
2018-06-21T21:39:21.101Z,100436.08
2018-06-21T21:41:50.382Z,100438.97
2018-06-21T21:44:20.094Z,100441.08
2018-06-21T21:46:49.696Z,100438.35
2018-06-21T21:49:19.200Z,100439.42
2018-06-21T21:51:49.002Z,100450.72
2018-06-21T21:54:18.637Z,100445.17
2018-06-21T21:56:47.812Z,100417.48
2018-06-21T21:59:17.250Z,100468.69
2018-06-21T22:01:46.791Z,100474.67
2018-06-21T22:04:16.155Z,100482.46
2018-06-21T22:06:45.544Z,100486.02
2018-06-21T22:09:14.908Z,100505.98
2018-06-21T22:11:44.195Z,100501.02
2018-06-21T22:14:13.802Z,100501.75
2018-06-21T22:16:43.712Z,100507.08
2018-06-21T22:19:12.981Z,100502.41
2018-06-21T22:21:42.538Z,100490.84
2018-06-21T22:24:12.253Z,100482.65
2018-06-21T22:26:41.489Z,100491.12
2018-06-21T22:29:10.741Z,100481.45
2018-06-21T22:31:40.274Z,100486.80
2018-06-21T22:34:09.715Z,100481.16
2018-06-21T22:36:39.012Z,100480.39
2018-06-21T22:39:10.479Z,100481.30
2018-06-21T22:41:40.329Z,100477.48
2018-06-21T22:44:09.979Z,100479.25
2018-06-21T22:46:39.255Z,100480.36
2018-06-21T22:49:09.380Z,100471.88
2018-06-21T22:51:39.012Z,100471.34
2018-06-21T22:54:08.865Z,100463.09
2018-06-21T22:56:38.733Z,100458.70
2018-06-21T22:59:08.125Z,100459.11
2018-06-21T23:01:37.347Z,100457.31
2018-06-21T23:04:07.483Z,100455.52
2018-06-21T23:06:36.620Z,100458.16
2018-06-21T23:09:07.104Z,100459.77
2018-06-21T23:11:36.703Z,100465.52
2018-06-21T23:14:05.877Z,100463.33
2018-06-21T23:16:35.088Z,100464.72
2018-06-21T23:19:15.454Z,100468.70
2018-06-21T23:21:44.765Z,100473.09
2018-06-21T23:24:13.879Z,100484.63
2018-06-21T23:26:43.669Z,100479.42
2018-06-21T23:29:13.595Z,100478.57
2018-06-21T23:31:43.166Z,100481.71
2018-06-21T23:34:12.732Z,100485.66
2018-06-21T23:36:42.205Z,100483.53
2018-06-21T23:39:12.633Z,100490.94
2018-06-21T23:41:43.199Z,100492.66
2018-06-21T23:44:13.791Z,100490.88
2018-06-21T23:46:43.987Z,100487.32
2018-06-21T23:49:14.008Z,100483.77
2018-06-21T23:51:43.718Z,100490.43
2018-06-21T23:54:14.022Z,100484.34
2018-06-21T23:56:44.262Z,100485.63
2018-06-21T23:59:13.720Z,100483.88
